sensor_id;sensor_type;location;lat;lon;timestamp;temperature;humidity
38788;DHT22;24536;45.488;12.238;2022-10-23T00:00:35;18.00;96.80
38788;DHT22;24536;45.488;12.238;2022-10-23T00:03:01;18.10;96.80
38788;DHT22;24536;45.488;12.238;2022-10-23T00:05:28;18.10;96.60
38788;DHT22;24536;45.488;12.238;2022-10-23T00:07:57;18.10;96.50
38788;DHT22;24536;45.488;12.238;2022-10-23T00:10:24;18.10;96.20
38788;DHT22;24536;45.488;12.238;2022-10-23T00:12:50;18.10;96.30
38788;DHT22;24536;45.488;12.238;2022-10-23T00:15:18;18.00;96.30
38788;DHT22;24536;45.488;12.238;2022-10-23T00:17:45;18.00;96.30
38788;DHT22;24536;45.488;12.238;2022-10-23T00:20:11;18.00;96.30
38788;DHT22;24536;45.488;12.238;2022-10-23T00:22:37;18.00;96.10
38788;DHT22;24536;45.488;12.238;2022-10-23T00:25:05;18.00;96.00
38788;DHT22;24536;45.488;12.238;2022-10-23T00:27:31;17.90;96.00
38788;DHT22;24536;45.488;12.238;2022-10-23T00:29:56;17.80;96.30
38788;DHT22;24536;45.488;12.238;2022-10-23T00:32:22;17.90;96.30
38788;DHT22;24536;45.488;12.238;2022-10-23T00:34:48;17.80;96.10
38788;DHT22;24536;45.488;12.238;2022-10-23T00:37:14;17.80;96.00
38788;DHT22;24536;45.488;12.238;2022-10-23T00:39:40;17.90;96.20
38788;DHT22;24536;45.488;12.238;2022-10-23T00:42:05;17.90;96.10
38788;DHT22;24536;45.488;12.238;2022-10-23T00:46:58;18.00;95.70
38788;DHT22;24536;45.488;12.238;2022-10-23T00:49:24;18.00;95.50
38788;DHT22;24536;45.488;12.238;2022-10-23T00:51:57;18.10;95.50
38788;DHT22;24536;45.488;12.238;2022-10-23T00:54:25;18.20;95.50
38788;DHT22;24536;45.488;12.238;2022-10-23T00:57:00;18.10;95.40
38788;DHT22;24536;45.488;12.238;2022-10-23T00:59:27;18.10;95.20
38788;DHT22;24536;45.488;12.238;2022-10-23T01:01:53;18.10;95.50
38788;DHT22;24536;45.488;12.238;2022-10-23T01:04:19;18.10;95.50
38788;DHT22;24536;45.488;12.238;2022-10-23T01:09:42;18.10;95.40
38788;DHT22;24536;45.488;12.238;2022-10-23T01:20:28;18.00;95.20
38788;DHT22;24536;45.488;12.238;2022-10-23T01:28:49;18.10;95.60
38788;DHT22;24536;45.488;12.238;2022-10-23T01:31:22;18.10;95.60
38788;DHT22;24536;45.488;12.238;2022-10-23T01:33:55;18.10;95.30
38788;DHT22;24536;45.488;12.238;2022-10-23T01:36:26;18.00;95.20
38788;DHT22;24536;45.488;12.238;2022-10-23T01:38:57;17.90;95.30
38788;DHT22;24536;45.488;12.238;2022-10-23T01:41:39;17.90;95.40
38788;DHT22;24536;45.488;12.238;2022-10-23T01:44:21;17.90;95.60
38788;DHT22;24536;45.488;12.238;2022-10-23T01:46:49;17.90;95.70
38788;DHT22;24536;45.488;12.238;2022-10-23T01:49:17;17.80;95.70
38788;DHT22;24536;45.488;12.238;2022-10-23T01:51:47;17.80;95.70
38788;DHT22;24536;45.488;12.238;2022-10-23T01:54:16;17.80;95.80
38788;DHT22;24536;45.488;12.238;2022-10-23T01:56:45;17.90;95.80
38788;DHT22;24536;45.488;12.238;2022-10-23T01:59:17;18.00;95.80
38788;DHT22;24536;45.488;12.238;2022-10-23T02:01:46;17.90;95.70
38788;DHT22;24536;45.488;12.238;2022-10-23T02:04:16;17.90;95.80
38788;DHT22;24536;45.488;12.238;2022-10-23T02:06:42;17.90;95.60
38788;DHT22;24536;45.488;12.238;2022-10-23T02:09:08;17.80;95.60
38788;DHT22;24536;45.488;12.238;2022-10-23T02:11:39;17.80;95.80
38788;DHT22;24536;45.488;12.238;2022-10-23T02:24:36;17.90;96.20
38788;DHT22;24536;45.488;12.238;2022-10-23T02:27:11;17.80;96.00
38788;DHT22;24536;45.488;12.238;2022-10-23T02:29:50;17.80;96.00
38788;DHT22;24536;45.488;12.238;2022-10-23T02:32:19;17.80;96.10
38788;DHT22;24536;45.488;12.238;2022-10-23T02:34:47;17.90;96.10
38788;DHT22;24536;45.488;12.238;2022-10-23T02:37:13;17.90;96.00
38788;DHT22;24536;45.488;12.238;2022-10-23T02:39:38;17.80;96.00
38788;DHT22;24536;45.488;12.238;2022-10-23T02:42:21;17.80;96.10
38788;DHT22;24536;45.488;12.238;2022-10-23T02:48:16;17.70;96.20
38788;DHT22;24536;45.488;12.238;2022-10-23T02:50:58;17.70;96.30
38788;DHT22;24536;45.488;12.238;2022-10-23T02:53:35;17.80;96.30
38788;DHT22;24536;45.488;12.238;2022-10-23T02:56:22;17.80;96.20
38788;DHT22;24536;45.488;12.238;2022-10-23T03:01:51;17.80;96.10
38788;DHT22;24536;45.488;12.238;2022-10-23T03:04:20;17.80;96.10
38788;DHT22;24536;45.488;12.238;2022-10-23T03:06:49;17.80;95.70
38788;DHT22;24536;45.488;12.238;2022-10-23T03:09:16;17.70;95.90
38788;DHT22;24536;45.488;12.238;2022-10-23T03:11:42;17.70;95.90
38788;DHT22;24536;45.488;12.238;2022-10-23T03:14:09;17.70;96.00
38788;DHT22;24536;45.488;12.238;2022-10-23T03:16:35;17.70;96.10
38788;DHT22;24536;45.488;12.238;2022-10-23T03:19:01;17.60;96.50
38788;DHT22;24536;45.488;12.238;2022-10-23T03:21:27;17.50;96.50
38788;DHT22;24536;45.488;12.238;2022-10-23T03:23:52;17.50;96.60
38788;DHT22;24536;45.488;12.238;2022-10-23T03:26:18;17.50;96.60
38788;DHT22;24536;45.488;12.238;2022-10-23T03:28:44;17.50;96.70
38788;DHT22;24536;45.488;12.238;2022-10-23T03:31:09;17.50;96.60
38788;DHT22;24536;45.488;12.238;2022-10-23T03:33:35;17.40;96.70
38788;DHT22;24536;45.488;12.238;2022-10-23T03:36:01;17.40;96.90
38788;DHT22;24536;45.488;12.238;2022-10-23T03:38:27;17.30;96.60
38788;DHT22;24536;45.488;12.238;2022-10-23T03:40:53;17.20;96.70
38788;DHT22;24536;45.488;12.238;2022-10-23T03:43:18;17.30;96.70
38788;DHT22;24536;45.488;12.238;2022-10-23T03:45:44;17.30;96.50
38788;DHT22;24536;45.488;12.238;2022-10-23T03:48:10;17.30;96.40
38788;DHT22;24536;45.488;12.238;2022-10-23T03:50:35;17.30;96.50
38788;DHT22;24536;45.488;12.238;2022-10-23T03:53:01;17.40;96.30
38788;DHT22;24536;45.488;12.238;2022-10-23T03:55:27;17.50;96.30
38788;DHT22;24536;45.488;12.238;2022-10-23T03:57:53;17.60;96.10
38788;DHT22;24536;45.488;12.238;2022-10-23T04:00:20;17.60;95.90
38788;DHT22;24536;45.488;12.238;2022-10-23T04:02:46;17.60;95.90
38788;DHT22;24536;45.488;12.238;2022-10-23T04:05:12;17.70;95.80
38788;DHT22;24536;45.488;12.238;2022-10-23T04:07:37;17.70;95.40
38788;DHT22;24536;45.488;12.238;2022-10-23T04:10:04;17.70;95.20
38788;DHT22;24536;45.488;12.238;2022-10-23T04:12:30;17.80;95.20
38788;DHT22;24536;45.488;12.238;2022-10-23T04:14:56;17.80;95.30
38788;DHT22;24536;45.488;12.238;2022-10-23T04:17:22;17.80;95.40
38788;DHT22;24536;45.488;12.238;2022-10-23T04:19:47;17.80;95.20
38788;DHT22;24536;45.488;12.238;2022-10-23T04:22:13;17.80;95.30
38788;DHT22;24536;45.488;12.238;2022-10-23T04:24:39;17.70;95.40
38788;DHT22;24536;45.488;12.238;2022-10-23T04:27:10;17.70;95.60
38788;DHT22;24536;45.488;12.238;2022-10-23T04:29:35;17.70;95.50
38788;DHT22;24536;45.488;12.238;2022-10-23T04:32:01;17.60;95.30
38788;DHT22;24536;45.488;12.238;2022-10-23T04:34:27;17.60;95.30
38788;DHT22;24536;45.488;12.238;2022-10-23T04:36:52;17.60;95.30
38788;DHT22;24536;45.488;12.238;2022-10-23T04:39:18;17.60;95.10
38788;DHT22;24536;45.488;12.238;2022-10-23T04:41:44;17.50;95.00
38788;DHT22;24536;45.488;12.238;2022-10-23T04:44:09;17.50;95.40
38788;DHT22;24536;45.488;12.238;2022-10-23T04:46:35;17.50;95.30
38788;DHT22;24536;45.488;12.238;2022-10-23T04:49:01;17.40;95.40
38788;DHT22;24536;45.488;12.238;2022-10-23T04:51:26;17.30;95.70
38788;DHT22;24536;45.488;12.238;2022-10-23T04:53:52;17.30;95.90
38788;DHT22;24536;45.488;12.238;2022-10-23T04:56:18;17.30;96.00
38788;DHT22;24536;45.488;12.238;2022-10-23T04:58:44;17.20;96.10
38788;DHT22;24536;45.488;12.238;2022-10-23T05:01:10;17.20;96.20
38788;DHT22;24536;45.488;12.238;2022-10-23T05:03:36;17.30;96.10
38788;DHT22;24536;45.488;12.238;2022-10-23T05:06:03;17.30;96.00
38788;DHT22;24536;45.488;12.238;2022-10-23T05:08:29;17.30;96.10
38788;DHT22;24536;45.488;12.238;2022-10-23T05:10:55;17.30;96.10
38788;DHT22;24536;45.488;12.238;2022-10-23T05:13:20;17.20;96.00
38788;DHT22;24536;45.488;12.238;2022-10-23T05:15:50;17.20;96.10
38788;DHT22;24536;45.488;12.238;2022-10-23T05:21:24;17.20;96.10
38788;DHT22;24536;45.488;12.238;2022-10-23T05:23:52;17.20;96.20
38788;DHT22;24536;45.488;12.238;2022-10-23T05:26:18;17.30;96.10
38788;DHT22;24536;45.488;12.238;2022-10-23T05:28:44;17.30;96.10
38788;DHT22;24536;45.488;12.238;2022-10-23T05:31:10;17.30;96.10
38788;DHT22;24536;45.488;12.238;2022-10-23T05:33:36;17.30;95.90
38788;DHT22;24536;45.488;12.238;2022-10-23T05:36:03;17.30;95.90
38788;DHT22;24536;45.488;12.238;2022-10-23T05:38:32;17.40;95.90
38788;DHT22;24536;45.488;12.238;2022-10-23T05:40:58;17.40;95.90
38788;DHT22;24536;45.488;12.238;2022-10-23T05:43:23;17.40;95.80
38788;DHT22;24536;45.488;12.238;2022-10-23T05:45:52;17.40;95.70
38788;DHT22;24536;45.488;12.238;2022-10-23T05:48:17;17.40;95.60
38788;DHT22;24536;45.488;12.238;2022-10-23T05:50:43;17.40;95.50
38788;DHT22;24536;45.488;12.238;2022-10-23T05:53:10;17.40;95.40
38788;DHT22;24536;45.488;12.238;2022-10-23T05:55:36;17.40;95.40
38788;DHT22;24536;45.488;12.238;2022-10-23T05:58:03;17.40;95.20
38788;DHT22;24536;45.488;12.238;2022-10-23T06:00:29;17.40;95.20
38788;DHT22;24536;45.488;12.238;2022-10-23T06:02:55;17.30;95.20
38788;DHT22;24536;45.488;12.238;2022-10-23T06:05:20;17.30;95.20
38788;DHT22;24536;45.488;12.238;2022-10-23T06:07:46;17.40;95.40
38788;DHT22;24536;45.488;12.238;2022-10-23T06:10:12;17.40;95.00
38788;DHT22;24536;45.488;12.238;2022-10-23T06:12:38;17.40;94.80
38788;DHT22;24536;45.488;12.238;2022-10-23T06:15:04;17.50;95.00
38788;DHT22;24536;45.488;12.238;2022-10-23T06:17:30;17.50;95.10
38788;DHT22;24536;45.488;12.238;2022-10-23T06:19:56;17.50;95.00
38788;DHT22;24536;45.488;12.238;2022-10-23T06:22:29;17.40;95.00
38788;DHT22;24536;45.488;12.238;2022-10-23T06:24:55;17.30;94.60
38788;DHT22;24536;45.488;12.238;2022-10-23T06:27:22;17.40;95.00
38788;DHT22;24536;45.488;12.238;2022-10-23T06:29:47;17.40;95.10
38788;DHT22;24536;45.488;12.238;2022-10-23T06:32:13;17.50;94.60
38788;DHT22;24536;45.488;12.238;2022-10-23T06:34:39;17.60;94.40
38788;DHT22;24536;45.488;12.238;2022-10-23T06:37:05;17.60;94.10
38788;DHT22;24536;45.488;12.238;2022-10-23T06:39:31;17.60;94.00
38788;DHT22;24536;45.488;12.238;2022-10-23T06:41:56;17.60;93.70
38788;DHT22;24536;45.488;12.238;2022-10-23T06:44:22;17.60;93.70
38788;DHT22;24536;45.488;12.238;2022-10-23T06:46:48;17.50;93.60
38788;DHT22;24536;45.488;12.238;2022-10-23T06:49:14;17.50;93.90
38788;DHT22;24536;45.488;12.238;2022-10-23T06:51:40;17.40;93.90
38788;DHT22;24536;45.488;12.238;2022-10-23T06:54:07;17.50;93.90
38788;DHT22;24536;45.488;12.238;2022-10-23T06:56:32;17.50;93.50
38788;DHT22;24536;45.488;12.238;2022-10-23T06:59:00;17.60;93.50
38788;DHT22;24536;45.488;12.238;2022-10-23T07:01:26;17.60;93.40
38788;DHT22;24536;45.488;12.238;2022-10-23T07:03:52;17.60;93.30
38788;DHT22;24536;45.488;12.238;2022-10-23T07:06:17;17.70;93.10
38788;DHT22;24536;45.488;12.238;2022-10-23T07:08:43;17.80;93.00
38788;DHT22;24536;45.488;12.238;2022-10-23T07:11:10;17.90;93.40
38788;DHT22;24536;45.488;12.238;2022-10-23T07:13:37;17.90;93.20
38788;DHT22;24536;45.488;12.238;2022-10-23T07:16:21;17.90;92.80
38788;DHT22;24536;45.488;12.238;2022-10-23T07:18:48;17.90;92.80
38788;DHT22;24536;45.488;12.238;2022-10-23T07:21:14;18.00;93.10
38788;DHT22;24536;45.488;12.238;2022-10-23T07:23:40;18.00;92.50
38788;DHT22;24536;45.488;12.238;2022-10-23T07:26:10;18.00;92.50
38788;DHT22;24536;45.488;12.238;2022-10-23T07:28:39;18.00;92.60
38788;DHT22;24536;45.488;12.238;2022-10-23T07:31:06;18.10;92.60
38788;DHT22;24536;45.488;12.238;2022-10-23T07:33:32;18.20;92.90
38788;DHT22;24536;45.488;12.238;2022-10-23T07:35:59;18.20;92.60
38788;DHT22;24536;45.488;12.238;2022-10-23T07:38:25;18.30;92.50
38788;DHT22;24536;45.488;12.238;2022-10-23T07:40:52;18.40;92.20
38788;DHT22;24536;45.488;12.238;2022-10-23T07:43:18;18.40;92.00
38788;DHT22;24536;45.488;12.238;2022-10-23T07:45:48;18.50;92.50
38788;DHT22;24536;45.488;12.238;2022-10-23T07:48:15;18.60;92.30
38788;DHT22;24536;45.488;12.238;2022-10-23T07:50:40;18.70;91.50
38788;DHT22;24536;45.488;12.238;2022-10-23T07:53:08;18.60;91.20
38788;DHT22;24536;45.488;12.238;2022-10-23T07:55:35;18.60;91.60
38788;DHT22;24536;45.488;12.238;2022-10-23T07:58:01;18.60;91.60
38788;DHT22;24536;45.488;12.238;2022-10-23T08:00:26;18.60;91.60
38788;DHT22;24536;45.488;12.238;2022-10-23T08:02:52;18.60;91.90
38788;DHT22;24536;45.488;12.238;2022-10-23T08:05:19;18.60;91.90
38788;DHT22;24536;45.488;12.238;2022-10-23T08:07:45;18.70;91.70
38788;DHT22;24536;45.488;12.238;2022-10-23T08:10:11;18.80;91.20
38788;DHT22;24536;45.488;12.238;2022-10-23T08:12:37;18.90;91.50
38788;DHT22;24536;45.488;12.238;2022-10-23T08:15:03;19.10;91.50
38788;DHT22;24536;45.488;12.238;2022-10-23T08:17:32;19.30;91.20
38788;DHT22;24536;45.488;12.238;2022-10-23T08:19:58;19.50;91.00
38788;DHT22;24536;45.488;12.238;2022-10-23T08:22:24;19.60;89.90
38788;DHT22;24536;45.488;12.238;2022-10-23T08:24:54;19.60;89.70
38788;DHT22;24536;45.488;12.238;2022-10-23T08:27:19;19.70;90.50
38788;DHT22;24536;45.488;12.238;2022-10-23T08:29:45;19.80;88.80
38788;DHT22;24536;45.488;12.238;2022-10-23T08:32:12;19.90;89.60
38788;DHT22;24536;45.488;12.238;2022-10-23T08:34:37;20.00;89.20
38788;DHT22;24536;45.488;12.238;2022-10-23T08:37:05;20.20;89.00
38788;DHT22;24536;45.488;12.238;2022-10-23T08:39:32;20.30;90.00
38788;DHT22;24536;45.488;12.238;2022-10-23T08:41:59;20.40;89.10
38788;DHT22;24536;45.488;12.238;2022-10-23T08:45:06;20.60;90.00
38788;DHT22;24536;45.488;12.238;2022-10-23T08:47:40;20.80;89.30
38788;DHT22;24536;45.488;12.238;2022-10-23T08:50:42;21.00;89.60
38788;DHT22;24536;45.488;12.238;2022-10-23T08:53:14;21.10;88.70
38788;DHT22;24536;45.488;12.238;2022-10-23T08:55:50;21.20;88.10
38788;DHT22;24536;45.488;12.238;2022-10-23T09:03:43;21.50;86.10
38788;DHT22;24536;45.488;12.238;2022-10-23T09:06:28;21.50;86.60
38788;DHT22;24536;45.488;12.238;2022-10-23T09:11:48;21.70;86.00
38788;DHT22;24536;45.488;12.238;2022-10-23T09:17:09;21.90;85.60
38788;DHT22;24536;45.488;12.238;2022-10-23T09:19:44;22.00;86.40
38788;DHT22;24536;45.488;12.238;2022-10-23T09:22:10;22.10;85.70
38788;DHT22;24536;45.488;12.238;2022-10-23T09:24:40;22.10;85.30
38788;DHT22;24536;45.488;12.238;2022-10-23T09:27:14;22.20;85.60
38788;DHT22;24536;45.488;12.238;2022-10-23T09:29:52;22.20;84.10
38788;DHT22;24536;45.488;12.238;2022-10-23T09:32:19;22.30;84.70
38788;DHT22;24536;45.488;12.238;2022-10-23T09:34:56;22.30;84.90
38788;DHT22;24536;45.488;12.238;2022-10-23T09:37:25;22.30;85.20
38788;DHT22;24536;45.488;12.238;2022-10-23T09:42:57;22.20;83.90
38788;DHT22;24536;45.488;12.238;2022-10-23T09:45:29;22.30;85.50
38788;DHT22;24536;45.488;12.238;2022-10-23T09:48:24;22.40;84.60
38788;DHT22;24536;45.488;12.238;2022-10-23T09:50:58;22.50;85.20
38788;DHT22;24536;45.488;12.238;2022-10-23T09:53:49;22.70;84.90
38788;DHT22;24536;45.488;12.238;2022-10-23T09:56:39;22.90;83.60
38788;DHT22;24536;45.488;12.238;2022-10-23T09:59:25;22.90;83.60
38788;DHT22;24536;45.488;12.238;2022-10-23T10:02:00;23.00;84.20
38788;DHT22;24536;45.488;12.238;2022-10-23T10:04:39;23.10;83.90
38788;DHT22;24536;45.488;12.238;2022-10-23T10:07:18;23.30;83.00
38788;DHT22;24536;45.488;12.238;2022-10-23T10:09:44;23.50;83.00
38788;DHT22;24536;45.488;12.238;2022-10-23T10:12:24;23.50;81.60
38788;DHT22;24536;45.488;12.238;2022-10-23T10:14:57;23.50;82.10
38788;DHT22;24536;45.488;12.238;2022-10-23T10:18:01;23.60;82.50
38788;DHT22;24536;45.488;12.238;2022-10-23T10:23:41;23.80;82.50
38788;DHT22;24536;45.488;12.238;2022-10-23T10:39:53;24.60;80.10
38788;DHT22;24536;45.488;12.238;2022-10-23T10:45:40;24.70;79.70
38788;DHT22;24536;45.488;12.238;2022-10-23T10:50:53;24.40;80.10
38788;DHT22;24536;45.488;12.238;2022-10-23T10:53:30;24.50;80.70
38788;DHT22;24536;45.488;12.238;2022-10-23T10:55:58;24.60;80.10
38788;DHT22;24536;45.488;12.238;2022-10-23T10:58:58;24.70;79.20
38788;DHT22;24536;45.488;12.238;2022-10-23T11:01:40;24.80;80.20
38788;DHT22;24536;45.488;12.238;2022-10-23T11:06:55;25.10;80.00
38788;DHT22;24536;45.488;12.238;2022-10-23T11:09:26;25.10;79.20
38788;DHT22;24536;45.488;12.238;2022-10-23T11:11:52;25.20;79.40
38788;DHT22;24536;45.488;12.238;2022-10-23T11:14:27;25.20;78.30
38788;DHT22;24536;45.488;12.238;2022-10-23T11:17:20;25.10;78.50
38788;DHT22;24536;45.488;12.238;2022-10-23T11:27:52;25.50;78.00
38788;DHT22;24536;45.488;12.238;2022-10-23T11:30:41;25.70;78.00
38788;DHT22;24536;45.488;12.238;2022-10-23T11:38:41;26.20;76.90
38788;DHT22;24536;45.488;12.238;2022-10-23T11:41:19;26.00;76.20
38788;DHT22;24536;45.488;12.238;2022-10-23T11:43:50;25.90;76.70
38788;DHT22;24536;45.488;12.238;2022-10-23T11:48:50;25.90;76.50
38788;DHT22;24536;45.488;12.238;2022-10-23T11:54:18;25.80;77.00
38788;DHT22;24536;45.488;12.238;2022-10-23T12:00:17;25.50;78.00
38788;DHT22;24536;45.488;12.238;2022-10-23T12:02:50;25.30;79.00
38788;DHT22;24536;45.488;12.238;2022-10-23T12:05:33;25.10;80.10
38788;DHT22;24536;45.488;12.238;2022-10-23T12:08:06;25.00;80.60
38788;DHT22;24536;45.488;12.238;2022-10-23T12:10:34;24.80;81.00
38788;DHT22;24536;45.488;12.238;2022-10-23T12:16:02;24.90;81.20
38788;DHT22;24536;45.488;12.238;2022-10-23T12:18:29;25.10;81.50
38788;DHT22;24536;45.488;12.238;2022-10-23T12:20:56;25.30;81.80
38788;DHT22;24536;45.488;12.238;2022-10-23T12:32:28;25.70;79.30
38788;DHT22;24536;45.488;12.238;2022-10-23T12:40:20;25.40;79.30
38788;DHT22;24536;45.488;12.238;2022-10-23T12:42:53;25.50;80.10
38788;DHT22;24536;45.488;12.238;2022-10-23T12:45:32;25.50;80.70
38788;DHT22;24536;45.488;12.238;2022-10-23T12:48:01;25.60;80.30
38788;DHT22;24536;45.488;12.238;2022-10-23T12:50:29;25.70;78.80
38788;DHT22;24536;45.488;12.238;2022-10-23T12:53:03;25.80;79.70
38788;DHT22;24536;45.488;12.238;2022-10-23T12:55:45;25.80;78.50
38788;DHT22;24536;45.488;12.238;2022-10-23T12:58:29;25.70;79.20
38788;DHT22;24536;45.488;12.238;2022-10-23T13:00:59;25.60;79.40
38788;DHT22;24536;45.488;12.238;2022-10-23T13:03:26;25.30;80.30
38788;DHT22;24536;45.488;12.238;2022-10-23T13:05:57;25.20;80.70
38788;DHT22;24536;45.488;12.238;2022-10-23T13:08:28;25.10;80.90
38788;DHT22;24536;45.488;12.238;2022-10-23T13:10:57;25.10;81.90
38788;DHT22;24536;45.488;12.238;2022-10-23T13:13:24;24.90;81.00
38788;DHT22;24536;45.488;12.238;2022-10-23T13:15:50;24.90;81.80
38788;DHT22;24536;45.488;12.238;2022-10-23T13:18:16;24.90;82.00
38788;DHT22;24536;45.488;12.238;2022-10-23T13:23:28;24.80;82.10
38788;DHT22;24536;45.488;12.238;2022-10-23T13:26:05;24.70;82.20
38788;DHT22;24536;45.488;12.238;2022-10-23T13:28:50;24.80;83.10
38788;DHT22;24536;45.488;12.238;2022-10-23T13:33:50;24.70;82.10
38788;DHT22;24536;45.488;12.238;2022-10-23T13:36:22;24.70;82.00
38788;DHT22;24536;45.488;12.238;2022-10-23T13:41:39;24.60;82.90
38788;DHT22;24536;45.488;12.238;2022-10-23T13:44:05;24.60;82.30
38788;DHT22;24536;45.488;12.238;2022-10-23T13:46:31;24.50;82.10
38788;DHT22;24536;45.488;12.238;2022-10-23T13:48:57;24.60;82.70
38788;DHT22;24536;45.488;12.238;2022-10-23T13:51:25;24.50;82.50
38788;DHT22;24536;45.488;12.238;2022-10-23T13:53:52;24.50;82.50
38788;DHT22;24536;45.488;12.238;2022-10-23T13:56:21;24.40;82.70
38788;DHT22;24536;45.488;12.238;2022-10-23T13:58:48;24.40;83.20
38788;DHT22;24536;45.488;12.238;2022-10-23T14:01:23;24.30;82.80
38788;DHT22;24536;45.488;12.238;2022-10-23T14:03:51;24.40;82.90
38788;DHT22;24536;45.488;12.238;2022-10-23T14:06:17;24.30;82.30
38788;DHT22;24536;45.488;12.238;2022-10-23T14:08:43;24.30;83.50
38788;DHT22;24536;45.488;12.238;2022-10-23T14:11:14;24.20;83.30
38788;DHT22;24536;45.488;12.238;2022-10-23T14:13:40;24.20;83.40
38788;DHT22;24536;45.488;12.238;2022-10-23T14:16:07;24.20;83.50
38788;DHT22;24536;45.488;12.238;2022-10-23T14:18:33;24.10;83.20
38788;DHT22;24536;45.488;12.238;2022-10-23T14:21:04;24.10;83.40
38788;DHT22;24536;45.488;12.238;2022-10-23T14:23:30;24.00;83.80
38788;DHT22;24536;45.488;12.238;2022-10-23T14:26:03;23.90;84.20
38788;DHT22;24536;45.488;12.238;2022-10-23T14:28:29;23.90;83.90
38788;DHT22;24536;45.488;12.238;2022-10-23T14:30:54;23.80;84.30
38788;DHT22;24536;45.488;12.238;2022-10-23T14:33:20;23.70;84.20
38788;DHT22;24536;45.488;12.238;2022-10-23T14:35:48;23.60;84.70
38788;DHT22;24536;45.488;12.238;2022-10-23T14:38:14;23.60;84.90
38788;DHT22;24536;45.488;12.238;2022-10-23T14:40:40;23.60;85.30
38788;DHT22;24536;45.488;12.238;2022-10-23T14:43:05;23.50;84.70
38788;DHT22;24536;45.488;12.238;2022-10-23T14:45:31;23.50;85.10
38788;DHT22;24536;45.488;12.238;2022-10-23T14:47:57;23.50;86.10
38788;DHT22;24536;45.488;12.238;2022-10-23T14:50:25;23.50;86.00
38788;DHT22;24536;45.488;12.238;2022-10-23T14:52:51;23.40;85.80
38788;DHT22;24536;45.488;12.238;2022-10-23T14:55:17;23.40;85.20
38788;DHT22;24536;45.488;12.238;2022-10-23T14:57:43;23.40;85.40
38788;DHT22;24536;45.488;12.238;2022-10-23T15:00:09;23.30;85.40
38788;DHT22;24536;45.488;12.238;2022-10-23T15:02:36;23.30;85.30
38788;DHT22;24536;45.488;12.238;2022-10-23T15:05:02;23.30;85.50
38788;DHT22;24536;45.488;12.238;2022-10-23T15:07:29;23.20;85.50
38788;DHT22;24536;45.488;12.238;2022-10-23T15:09:54;23.20;85.50
38788;DHT22;24536;45.488;12.238;2022-10-23T15:12:20;23.10;85.60
38788;DHT22;24536;45.488;12.238;2022-10-23T15:14:46;23.10;85.90
38788;DHT22;24536;45.488;12.238;2022-10-23T15:17:11;23.10;85.80
38788;DHT22;24536;45.488;12.238;2022-10-23T15:19:37;23.10;87.00
38788;DHT22;24536;45.488;12.238;2022-10-23T15:22:03;23.00;86.60
38788;DHT22;24536;45.488;12.238;2022-10-23T15:24:28;23.00;87.10
38788;DHT22;24536;45.488;12.238;2022-10-23T15:26:54;23.00;86.90
38788;DHT22;24536;45.488;12.238;2022-10-23T15:29:20;22.90;86.40
38788;DHT22;24536;45.488;12.238;2022-10-23T15:31:52;22.90;86.20
38788;DHT22;24536;45.488;12.238;2022-10-23T15:34:21;22.90;87.00
38788;DHT22;24536;45.488;12.238;2022-10-23T15:36:48;22.80;87.80
38788;DHT22;24536;45.488;12.238;2022-10-23T15:39:19;22.80;87.40
38788;DHT22;24536;45.488;12.238;2022-10-23T15:41:46;22.70;87.40
38788;DHT22;24536;45.488;12.238;2022-10-23T15:44:15;22.70;87.60
38788;DHT22;24536;45.488;12.238;2022-10-23T15:46:41;22.70;87.80
38788;DHT22;24536;45.488;12.238;2022-10-23T15:49:07;22.60;88.00
38788;DHT22;24536;45.488;12.238;2022-10-23T15:51:33;22.60;88.40
38788;DHT22;24536;45.488;12.238;2022-10-23T15:54:00;22.50;89.30
38788;DHT22;24536;45.488;12.238;2022-10-23T15:56:26;22.50;89.90
38788;DHT22;24536;45.488;12.238;2022-10-23T15:58:51;22.40;90.00
38788;DHT22;24536;45.488;12.238;2022-10-23T16:01:17;22.40;90.10
38788;DHT22;24536;45.488;12.238;2022-10-23T16:03:43;22.40;90.30
38788;DHT22;24536;45.488;12.238;2022-10-23T16:06:11;22.30;90.40
38788;DHT22;24536;45.488;12.238;2022-10-23T16:08:38;22.20;90.40
38788;DHT22;24536;45.488;12.238;2022-10-23T16:11:21;22.20;90.50
38788;DHT22;24536;45.488;12.238;2022-10-23T16:13:47;22.20;90.70
38788;DHT22;24536;45.488;12.238;2022-10-23T16:16:14;22.10;90.90
38788;DHT22;24536;45.488;12.238;2022-10-23T16:18:40;22.10;90.80
38788;DHT22;24536;45.488;12.238;2022-10-23T16:21:06;22.10;91.10
38788;DHT22;24536;45.488;12.238;2022-10-23T16:23:33;22.10;91.30
38788;DHT22;24536;45.488;12.238;2022-10-23T16:26:05;22.00;91.30
38788;DHT22;24536;45.488;12.238;2022-10-23T16:28:31;22.00;91.40
38788;DHT22;24536;45.488;12.238;2022-10-23T16:30:57;22.00;91.70
38788;DHT22;24536;45.488;12.238;2022-10-23T16:33:23;21.90;91.70
38788;DHT22;24536;45.488;12.238;2022-10-23T16:35:48;21.90;91.80
38788;DHT22;24536;45.488;12.238;2022-10-23T16:38:14;21.80;91.80
38788;DHT22;24536;45.488;12.238;2022-10-23T16:40:40;21.80;92.00
38788;DHT22;24536;45.488;12.238;2022-10-23T16:43:05;21.80;92.10
38788;DHT22;24536;45.488;12.238;2022-10-23T16:45:31;21.70;92.20
38788;DHT22;24536;45.488;12.238;2022-10-23T16:47:56;21.70;92.30
38788;DHT22;24536;45.488;12.238;2022-10-23T16:50:22;21.70;92.20
38788;DHT22;24536;45.488;12.238;2022-10-23T16:52:48;21.70;92.30
38788;DHT22;24536;45.488;12.238;2022-10-23T16:55:14;21.60;92.40
38788;DHT22;24536;45.488;12.238;2022-10-23T16:57:40;21.60;92.50
38788;DHT22;24536;45.488;12.238;2022-10-23T17:00:07;21.60;92.60
38788;DHT22;24536;45.488;12.238;2022-10-23T17:02:33;21.60;92.70
38788;DHT22;24536;45.488;12.238;2022-10-23T17:04:58;21.50;92.80
38788;DHT22;24536;45.488;12.238;2022-10-23T17:07:24;21.60;92.90
38788;DHT22;24536;45.488;12.238;2022-10-23T17:09:50;21.50;92.90
38788;DHT22;24536;45.488;12.238;2022-10-23T17:12:16;21.50;93.00
38788;DHT22;24536;45.488;12.238;2022-10-23T17:14:42;21.50;93.00
38788;DHT22;24536;45.488;12.238;2022-10-23T17:17:07;21.50;93.10
38788;DHT22;24536;45.488;12.238;2022-10-23T17:19:35;21.50;93.00
38788;DHT22;24536;45.488;12.238;2022-10-23T17:22:02;21.40;93.10
38788;DHT22;24536;45.488;12.238;2022-10-23T17:24:28;21.40;93.10
38788;DHT22;24536;45.488;12.238;2022-10-23T17:26:54;21.40;93.20
38788;DHT22;24536;45.488;12.238;2022-10-23T17:29:20;21.40;93.10
38788;DHT22;24536;45.488;12.238;2022-10-23T17:31:48;21.40;93.20